Time;durP1;ratioP1;P1;durP2;ratioP2;P2;SDS_P1;SDS_P2;PMS_P1;PMS_P2;Temp;Humidity;BMP_temperature;BMP_pressure;BME280_temperature;BME280_humidity;BME280_pressure;Samples;Min_cycle;Max_cycle;Signal;HPM_P1;HPM_P2
2022/04/07 00:01:00;;;;;;;2.80;2.70;;;10.40;99.90;;;11.00;85.30;96488.16;5201373;28;20249;-62
2022/04/07 00:03:34;;;;;;;3.08;2.80;;;10.40;99.90;;;10.99;85.44;96481.31;5201291;28;20198;-62
2022/04/07 00:06:09;;;;;;;2.80;2.70;;;10.30;99.90;;;11.01;85.81;96485.63;5196305;28;20240;-62
2022/04/07 00:08:44;;;;;;;2.80;2.60;;;10.40;99.90;;;10.98;86.20;96477.88;5201982;28;20267;-61
2022/04/07 00:11:17;;;;;;;2.60;2.50;;;10.40;99.90;;;11.00;85.60;96486.47;5202491;28;20288;-63
2022/04/07 00:13:50;;;;;;;2.58;2.47;;;10.40;99.90;;;10.80;87.49;96487.50;5196961;28;20241;-61
2022/04/07 00:16:23;;;;;;;2.50;2.40;;;10.30;99.90;;;10.77;87.85;96475.47;5202252;28;20220;-63
2022/04/07 00:18:57;;;;;;;2.85;2.70;;;10.30;99.90;;;10.89;86.78;96476.72;5207892;28;20194;-60
2022/04/07 00:21:38;;;;;;;2.33;2.22;;;10.30;99.90;;;10.86;86.82;96474.06;5205562;28;20201;-62
2022/04/07 00:24:12;;;;;;;2.30;2.10;;;10.30;99.90;;;10.92;86.69;96474.25;5198891;28;20218;-63
2022/04/07 00:26:45;;;;;;;2.38;2.17;;;10.30;99.90;;;10.90;85.64;96465.66;5206350;28;20248;-61
2022/04/07 00:29:19;;;;;;;2.85;2.70;;;10.30;99.90;;;10.89;85.50;96474.16;5199223;28;20616;-62
2022/04/07 00:31:56;;;;;;;2.30;2.20;;;10.30;99.90;;;10.74;86.99;96464.28;5201814;28;20743;-61
2022/04/07 00:34:29;;;;;;;2.65;2.53;;;10.20;99.90;;;10.72;86.87;96463.38;5208165;28;20284;-62
2022/04/07 00:37:03;;;;;;;2.22;2.13;;;10.20;99.90;;;10.78;86.86;96466.97;5209168;28;20673;-62
2022/04/07 00:39:37;;;;;;;2.28;2.17;;;10.10;99.90;;;10.71;87.23;96453.97;5200203;28;20573;-62
2022/04/07 00:42:10;;;;;;;2.05;1.95;;;10.10;99.90;;;10.85;86.72;96460.41;5196632;28;20228;-62
2022/04/07 00:44:44;;;;;;;2.40;2.30;;;10.20;99.90;;;10.84;86.92;96461.22;5200264;28;20779;-63
2022/04/07 00:47:17;;;;;;;2.40;2.30;;;10.10;99.90;;;10.81;87.05;96466.22;5198767;28;20268;-63
2022/04/07 00:49:50;;;;;;;2.28;2.17;;;10.20;99.90;;;10.97;86.93;96454.81;5204941;28;20193;-63
2022/04/07 00:52:24;;;;;;;2.28;2.17;;;10.20;99.90;;;10.86;87.19;96449.34;5199129;28;20248;-63
2022/04/07 00:54:59;;;;;;;1.92;1.83;;;10.20;99.90;;;10.87;86.23;96447.66;5202514;28;20249;-62
2022/04/07 00:57:33;;;;;;;2.03;1.92;;;10.20;99.90;;;10.79;87.79;96448.28;5200159;28;20280;-63
2022/04/07 01:00:08;;;;;;;2.25;2.05;;;10.10;99.90;;;10.80;87.59;96451.72;5199533;28;22231;-63
2022/04/07 01:02:42;;;;;;;2.15;2.05;;;10.10;99.90;;;10.83;87.20;96447.56;5191823;28;20206;-62
2022/04/07 01:05:18;;;;;;;2.22;2.13;;;10.10;99.90;;;10.97;86.44;96448.03;5196685;28;20229;-62
2022/04/07 01:07:52;;;;;;;2.40;2.30;;;10.20;99.90;;;10.94;86.77;96445.38;5202312;28;20876;-62
2022/04/07 01:10:26;;;;;;;2.30;2.20;;;10.20;99.90;;;10.83;87.74;96445.00;5197112;28;20202;-63
2022/04/07 01:12:59;;;;;;;2.35;2.15;;;10.20;99.90;;;10.88;87.50;96444.31;5199731;28;20227;-63
2022/04/07 01:15:33;;;;;;;1.77;1.67;;;10.20;99.90;;;10.86;87.66;96438.28;5198453;28;20299;-63
2022/04/07 01:18:06;;;;;;;2.00;1.90;;;10.10;99.90;;;10.87;87.47;96438.31;5198955;28;20276;-58
2022/04/07 01:20:40;;;;;;;2.20;2.10;;;10.10;99.90;;;10.83;87.89;96424.56;5198113;28;20248;-62
2022/04/07 01:23:13;;;;;;;2.10;2.00;;;10.10;99.90;;;10.81;88.09;96433.84;5198042;28;20237;-63
2022/04/07 01:25:49;;;;;;;2.08;1.98;;;10.10;99.90;;;10.85;87.80;96428.88;5201734;28;20605;-62
2022/04/07 01:28:22;;;;;;;2.10;2.00;;;10.10;99.90;;;10.96;86.31;96430.06;5205151;28;20299;-61
2022/04/07 01:30:55;;;;;;;2.10;2.00;;;10.20;99.90;;;11.02;87.03;96435.41;5198810;28;20731;-60
2022/04/07 01:33:29;;;;;;;2.10;2.00;;;10.30;99.90;;;10.85;87.83;96427.19;5199646;28;20726;-63
2022/04/07 01:36:02;;;;;;;2.17;2.08;;;10.20;99.90;;;10.81;88.57;96436.41;5199167;28;20253;-59
2022/04/07 01:38:35;;;;;;;1.92;1.83;;;10.10;99.90;;;10.76;89.74;96429.44;5199060;28;20289;-59
2022/04/07 01:41:09;;;;;;;2.10;2.00;;;10.10;99.90;;;10.80;89.41;96421.03;5197744;28;20702;-58
2022/04/07 01:43:43;;;;;;;1.95;1.85;;;10.10;99.90;;;10.74;90.15;96414.03;5199817;28;20285;-58
2022/04/07 01:46:17;;;;;;;1.98;1.88;;;10.00;99.90;;;10.66;90.24;96423.13;5198092;28;20222;-57
2022/04/07 01:48:51;;;;;;;2.10;2.00;;;10.00;99.90;;;10.57;91.78;96415.19;5200513;28;20308;-58
2022/04/07 01:51:25;;;;;;;2.13;1.95;;;10.00;99.90;;;10.55;92.10;96416.81;5198307;28;20193;-59
2022/04/07 01:53:58;;;;;;;2.10;2.00;;;9.90;99.90;;;10.51;91.91;96426.06;5198698;28;20232;-59
2022/04/07 01:56:34;;;;;;;2.28;2.08;;;9.90;99.90;;;10.51;92.05;96423.50;5202853;28;20218;-59
2022/04/07 01:59:08;;;;;;;2.42;2.30;;;9.80;99.90;;;10.56;91.88;96416.88;5198219;28;20214;-60
2022/04/07 02:01:41;;;;;;;2.25;2.15;;;9.80;99.90;;;10.57;91.61;96403.25;5199453;28;20225;-59
2022/04/07 02:04:15;;;;;;;2.17;2.08;;;9.80;99.90;;;10.65;91.28;96412.88;5198954;28;20222;-59
2022/04/07 02:06:48;;;;;;;2.00;1.90;;;9.90;99.90;;;10.70;90.72;96404.56;5200537;28;20259;-59
2022/04/07 02:09:21;;;;;;;2.00;1.90;;;9.90;99.90;;;10.54;91.55;96395.50;5198306;28;20276;-59
2022/04/07 02:11:55;;;;;;;1.85;1.75;;;9.90;99.90;;;10.57;91.90;96394.72;5200628;28;20239;-60
2022/04/07 02:14:28;;;;;;;1.83;1.73;;;9.80;99.90;;;10.54;90.79;96399.75;5200414;28;20244;-59
2022/04/07 02:17:02;;;;;;;2.00;1.90;;;9.80;99.90;;;10.51;92.10;96399.66;5201153;28;20229;-58
2022/04/07 02:19:35;;;;;;;2.40;2.30;;;9.70;99.90;;;10.56;91.17;96405.78;5211636;28;20244;-59
2022/04/07 02:22:08;;;;;;;2.45;2.35;;;9.70;99.90;;;10.48;91.26;96404.66;5207949;28;20714;-59
2022/04/07 02:24:41;;;;;;;2.40;2.30;;;9.70;99.90;;;10.58;91.06;96406.69;5204376;28;20336;-59
2022/04/07 02:27:17;;;;;;;2.10;2.00;;;9.70;99.90;;;10.56;90.58;96398.97;5205506;28;20237;-59
2022/04/07 02:29:50;;;;;;;2.00;1.90;;;9.70;99.90;;;10.50;91.34;96403.00;5198758;28;20653;-58
2022/04/07 02:32:23;;;;;;;2.10;2.00;;;9.70;99.90;;;10.52;90.58;96399.69;5203900;28;20198;-59
2022/04/07 02:34:56;;;;;;;2.05;1.95;;;9.70;99.90;;;10.49;91.24;96401.28;5201665;28;20238;-58
2022/04/07 02:37:29;;;;;;;2.03;1.92;;;9.70;99.90;;;10.58;90.12;96406.69;5207507;28;20729;-59
2022/04/07 02:40:01;;;;;;;2.20;2.10;;;9.80;99.90;;;10.62;89.57;96398.31;5204091;28;20606;-59
2022/04/07 02:42:36;;;;;;;2.35;2.15;;;9.80;99.90;;;10.68;89.30;96401.06;5199766;28;20234;-59
2022/04/07 02:45:10;;;;;;;2.20;2.10;;;9.90;99.90;;;10.63;88.79;96400.03;5204164;28;20643;-59
2022/04/07 02:47:43;;;;;;;2.10;2.00;;;9.80;99.90;;;10.61;88.71;96391.44;5203547;28;20674;-55
2022/04/07 02:50:16;;;;;;;2.38;2.28;;;9.80;99.90;;;10.59;88.53;96388.00;5204194;28;20225;-59
2022/04/07 02:52:49;;;;;;;2.42;2.30;;;9.80;99.90;;;10.72;87.37;96387.56;5196776;28;20675;-57
2022/04/07 02:55:24;;;;;;;2.47;2.38;;;9.90;99.90;;;10.58;87.57;96391.34;5202507;28;20769;-58
2022/04/07 02:58:00;;;;;;;2.38;2.17;;;9.90;99.90;;;10.67;87.70;96381.44;5204999;28;20673;-58
2022/04/07 03:00:33;;;;;;;2.30;2.20;;;9.90;99.90;;;10.66;87.22;96379.69;5201986;28;20721;-58
2022/04/07 03:03:06;;;;;;;2.22;1.98;;;9.90;99.90;;;10.59;87.93;96373.53;5204149;28;20206;-61
2022/04/07 03:05:40;;;;;;;2.35;2.15;;;9.80;99.90;;;10.51;86.92;96371.53;5205827;28;20217;-62
2022/04/07 03:08:13;;;;;;;2.00;1.90;;;9.80;99.90;;;10.55;87.04;96365.72;5205447;28;20256;-63
2022/04/07 03:10:46;;;;;;;2.50;2.30;;;9.80;99.90;;;10.63;85.73;96364.28;5207565;28;20202;-62
2022/04/07 03:13:21;;;;;;;2.20;2.10;;;9.90;99.90;;;10.60;84.74;96364.19;5203976;28;20292;-62
2022/04/07 03:15:55;;;;;;;1.98;1.88;;;9.80;99.90;;;10.66;84.70;96364.38;5205726;28;20225;-61
2022/04/07 03:18:28;;;;;;;1.98;1.88;;;9.90;99.90;;;10.69;84.00;96359.34;5204216;28;20285;-59
2022/04/07 03:21:01;;;;;;;2.00;1.90;;;9.90;99.90;;;10.74;81.87;96360.38;5200582;28;20224;-61
2022/04/07 03:23:35;;;;;;;1.85;1.80;;;10.00;99.90;;;10.77;80.72;96351.94;5201725;28;20249;-61
2022/04/07 03:26:08;;;;;;;1.70;1.70;;;10.00;99.90;;;10.63;79.26;96348.94;5205163;28;20661;-61
2022/04/07 03:28:42;;;;;;;1.63;1.63;;;10.00;99.90;;;10.64;79.82;96354.91;5201412;28;20303;-57
2022/04/07 03:31:16;;;;;;;1.70;1.60;;;10.00;99.90;;;10.72;78.77;96349.22;5203711;28;20232;-59
2022/04/07 03:33:49;;;;;;;1.57;1.50;;;10.00;99.90;;;10.76;78.04;96345.97;5203155;28;20210;-62
2022/04/07 03:36:22;;;;;;;1.90;1.90;;;10.10;99.90;;;10.70;77.62;96337.22;5212103;28;20206;-62
2022/04/07 03:38:55;;;;;;;1.70;1.70;;;10.10;99.90;;;10.67;77.38;96340.53;5204398;28;20285;-61
2022/04/07 03:41:29;;;;;;;1.73;1.63;;;10.10;99.90;;;10.67;77.35;96337.13;5205311;28;20229;-59
2022/04/07 03:44:07;;;;;;;2.00;1.90;;;10.00;99.90;;;10.64;76.52;96342.16;5204604;28;20194;-60
2022/04/07 03:46:41;;;;;;;1.58;1.58;;;10.00;99.90;;;10.58;77.32;96347.91;5206044;28;20743;-58
2022/04/07 03:49:14;;;;;;;1.70;1.63;;;10.10;99.90;;;10.67;77.07;96338.00;5196889;28;20721;-60
2022/04/07 03:51:47;;;;;;;2.00;1.90;;;10.00;99.90;;;10.64;76.93;96342.16;5205056;28;20198;-59
2022/04/07 03:54:21;;;;;;;1.30;1.30;;;10.10;99.90;;;10.67;75.87;96337.13;5206006;28;20222;-60
2022/04/07 03:56:55;;;;;;;2.03;1.93;;;10.00;99.90;;;10.79;76.20;96319.66;5206416;28;20296;-59
2022/04/07 03:59:33;;;;;;;1.50;1.50;;;10.00;99.90;;;10.82;74.99;96333.38;5205368;28;20292;-59
2022/04/07 04:02:06;;;;;;;1.43;1.43;;;10.10;99.90;;;10.73;74.64;96322.88;5203100;28;20202;-60
2022/04/07 04:04:40;;;;;;;2.10;1.90;;;10.10;99.90;;;10.71;74.51;96331.31;5199948;28;20218;-61
2022/04/07 04:07:13;;;;;;;1.80;1.70;;;10.10;99.90;;;10.59;74.09;96311.34;5205041;28;20267;-60
2022/04/07 04:09:46;;;;;;;1.87;1.77;;;10.10;99.90;;;10.71;74.21;96321.94;5207603;28;20245;-61
2022/04/07 04:12:19;;;;;;;1.80;1.70;;;10.10;99.90;;;10.72;74.33;96308.34;5203799;28;20240;-59
2022/04/07 04:14:54;;;;;;;1.70;1.60;;;10.10;99.90;;;10.72;74.10;96321.13;5203796;28;20739;-58
2022/04/07 04:17:30;;;;;;;1.70;1.70;;;10.10;99.90;;;10.83;73.32;96318.91;5204091;28;20217;-57
2022/04/07 04:20:03;;;;;;;1.92;1.83;;;10.20;99.90;;;10.73;74.98;96310.09;5206099;28;20221;-56
2022/04/07 04:22:38;;;;;;;1.85;1.75;;;10.20;99.90;;;10.73;76.65;96306.66;5202510;28;20200;-56
2022/04/07 04:25:11;;;;;;;1.70;1.70;;;10.00;99.90;;;10.71;76.18;96305.75;5203703;28;20225;-57
2022/04/07 04:27:44;;;;;;;1.67;1.58;;;10.00;99.90;;;10.57;77.15;96292.53;5204653;28;20705;-56
2022/04/07 04:30:18;;;;;;;2.00;1.97;;;9.90;99.90;;;10.73;76.69;96294.78;5205847;28;20261;-57
2022/04/07 04:32:52;;;;;;;1.77;1.67;;;10.00;99.90;;;10.69;76.23;96287.81;5202014;28;20622;-55
2022/04/07 04:35:25;;;;;;;1.53;1.50;;;10.00;99.90;;;10.52;76.79;96273.66;5203150;28;20584;-59
2022/04/07 04:37:58;;;;;;;2.10;1.87;;;10.00;99.90;;;10.67;74.28;96263.88;5200480;28;20662;-59
2022/04/07 04:40:31;;;;;;;2.00;1.85;;;10.00;99.90;;;10.72;73.56;96267.47;5194150;28;20610;-56
2022/04/07 04:43:05;;;;;;;1.83;1.73;;;10.00;99.90;;;10.73;73.94;96270.88;5199629;28;20629;-55
2022/04/07 04:45:39;;;;;;;1.65;1.65;;;10.00;99.90;;;10.81;74.04;96265.19;5199469;28;20249;-57
2022/04/07 04:48:12;;;;;;;1.70;1.67;;;10.10;99.90;;;10.70;74.42;96274.22;5202495;28;20213;-54
2022/04/07 04:50:45;;;;;;;2.00;1.90;;;10.10;99.90;;;10.68;73.45;96270.75;5201240;28;20234;-56
2022/04/07 04:53:18;;;;;;;2.05;1.95;;;10.00;99.90;;;10.78;74.03;96280.41;5200898;28;20218;-58
2022/04/07 04:55:51;;;;;;;2.05;1.95;;;10.00;99.90;;;10.77;73.76;96272.72;5199811;28;20245;-51
2022/04/07 04:58:25;;;;;;;2.00;1.90;;;10.10;99.90;;;10.71;73.68;96275.97;5204075;28;20229;-57
2022/04/07 05:00:59;;;;;;;2.20;2.10;;;10.00;99.90;;;10.74;74.10;96268.38;5205253;28;20248;-53
2022/04/07 05:03:32;;;;;;;1.98;1.88;;;10.00;99.90;;;10.83;73.64;96272.91;5204617;28;20599;-56
2022/04/07 05:06:05;;;;;;;2.08;1.98;;;10.10;99.90;;;10.72;74.29;96267.47;5204169;28;20224;-56
2022/04/07 05:08:38;;;;;;;1.95;1.85;;;10.10;99.90;;;10.75;72.84;96266.69;5205297;28;20252;-55
2022/04/07 05:11:11;;;;;;;2.03;1.92;;;10.10;99.90;;;10.73;72.63;96279.44;5204882;28;20264;-56
2022/04/07 05:13:44;;;;;;;2.03;1.92;;;10.10;99.90;;;10.77;72.13;96271.03;5204249;28;20202;-56
2022/04/07 05:16:19;;;;;;;1.90;1.80;;;10.10;99.90;;;10.70;73.21;96263.13;5204248;28;20629;-61
2022/04/07 05:18:52;;;;;;;2.10;2.00;;;10.10;99.90;;;10.79;72.19;96274.50;5201390;28;20584;-58
2022/04/07 05:21:26;;;;;;;2.10;2.00;;;10.10;99.90;;;10.76;72.54;96269.31;5201828;28;20197;-59
2022/04/07 05:23:59;;;;;;;2.08;1.90;;;10.10;99.90;;;10.75;73.01;96253.91;5203089;28;20293;-60
2022/04/07 05:26:32;;;;;;;2.25;2.15;;;10.10;99.90;;;10.80;72.66;96262.59;5204718;28;20685;-58
2022/04/07 05:29:05;;;;;;;2.20;1.90;;;10.10;99.90;;;10.79;72.68;96256.63;5203836;28;20201;-58
2022/04/07 05:31:40;;;;;;;2.03;1.92;;;10.10;99.90;;;10.74;73.37;96259.84;5198568;28;20244;-58
2022/04/07 05:34:14;;;;;;;1.67;1.67;;;10.10;99.90;;;10.79;72.15;96258.31;5202088;28;20257;-57
2022/04/07 05:36:47;;;;;;;2.05;1.58;;;10.00;99.90;;;10.94;72.68;96263.00;5208353;28;20710;-58
2022/04/07 05:39:20;;;;;;;1.95;1.85;;;10.10;99.90;;;10.86;72.37;96259.34;5207948;28;20206;-58
2022/04/07 05:41:53;;;;;;;1.92;1.80;;;10.10;99.90;;;10.80;72.66;96265.16;5205991;28;20252;-59
2022/04/07 05:44:27;;;;;;;1.63;1.63;;;10.10;99.90;;;10.87;73.00;96255.97;5199873;28;20287;-59
2022/04/07 05:47:01;;;;;;;3.80;1.75;;;10.10;99.90;;;10.94;72.35;96257.91;5208071;28;20634;-59
2022/04/07 05:49:34;;;;;;;2.53;2.33;;;10.20;99.90;;;10.92;71.70;96250.16;5208754;28;20217;-59
2022/04/07 05:52:08;;;;;;;1.70;1.60;;;10.20;99.90;;;11.03;72.77;96253.03;5207141;28;20232;-55
2022/04/07 05:54:42;;;;;;;1.73;1.63;;;10.10;99.90;;;10.99;72.59;96251.25;5207960;28;20724;-59
2022/04/07 05:57:16;;;;;;;1.80;1.70;;;10.10;99.90;;;10.97;73.07;96247.75;5208279;28;20312;-60
2022/04/07 05:59:49;;;;;;;1.88;1.77;;;10.20;99.90;;;11.06;72.98;96253.13;5208230;28;20285;-59
2022/04/07 06:02:23;;;;;;;1.83;1.60;;;10.30;99.90;;;11.15;71.57;96252.53;5207172;28;20198;-57
2022/04/07 06:04:56;;;;;;;1.70;1.60;;;10.30;99.90;;;11.30;70.67;96242.72;5204386;28;20302;-58
2022/04/07 06:07:29;;;;;;;1.70;1.60;;;10.40;99.90;;;11.25;71.26;96245.16;5208317;28;20675;-57
2022/04/07 06:10:03;;;;;;;1.48;1.45;;;10.50;99.90;;;11.33;71.43;96231.72;5208282;28;20444;-58
2022/04/07 06:12:38;;;;;;;1.50;1.40;;;10.50;99.90;;;11.38;70.45;96220.78;5208131;28;20233;-58
2022/04/07 06:15:12;;;;;;;1.50;1.50;;;10.50;99.90;;;11.34;70.19;96213.00;5207808;28;20701;-59
2022/04/07 06:17:47;;;;;;;1.38;1.20;;;10.60;99.90;;;11.69;69.32;96207.09;5207778;28;20280;-54
2022/04/07 06:20:21;;;;;;;1.58;1.48;;;10.80;99.90;;;12.27;67.45;96194.03;5208192;28;20221;-57
2022/04/07 06:22:54;;;;;;;1.77;1.77;;;11.40;99.90;;;12.80;65.16;96189.25;5206696;28;20197;-57
2022/04/07 06:25:27;;;;;;;1.50;1.40;;;11.80;99.90;;;13.27;63.36;96176.53;5207329;28;20303;-56
2022/04/07 06:28:02;;;;;;;1.42;1.40;;;12.20;99.90;;;13.61;61.43;96161.78;5201091;28;20245;-59
2022/04/07 06:30:35;;;;;;;1.38;1.30;;;12.70;99.90;;;14.18;58.78;96161.00;5207155;28;20626;-59
2022/04/07 06:33:10;;;;;;;1.30;1.30;;;13.10;99.90;;;14.69;57.78;96149.78;5206382;28;20287;-57
2022/04/07 06:35:43;;;;;;;1.10;1.05;;;13.50;99.90;;;14.74;57.10;96137.84;5207736;28;20627;-59
2022/04/07 06:38:16;;;;;;;1.60;1.42;;;13.60;99.90;;;15.09;56.03;96134.84;5207670;28;20693;-57
2022/04/07 06:40:49;;;;;;;1.33;1.30;;;13.80;99.90;;;15.17;54.26;96102.34;5206151;28;20202;-58
2022/04/07 06:43:22;;;;;;;1.20;1.20;;;14.20;99.90;;;15.58;53.25;96083.84;5207489;28;20289;-55
2022/04/07 06:45:55;;;;;;;1.40;1.30;;;14.50;99.70;;;15.45;53.25;96093.19;5205535;28;20256;-58
2022/04/07 06:48:30;;;;;;;2.25;1.35;;;14.40;99.00;;;14.86;53.50;96077.97;5204479;28;20263;-54
2022/04/07 06:51:03;;;;;;;1.35;1.30;;;13.70;99.40;;;14.47;54.45;96091.16;5206203;28;20221;-58
2022/04/07 06:53:36;;;;;;;1.33;1.30;;;13.40;99.90;;;14.25;54.53;96115.69;5199494;28;20242;-56
2022/04/07 06:56:10;;;;;;;1.33;1.23;;;13.20;99.90;;;13.70;56.26;96108.88;5207198;28;20313;-54
2022/04/07 06:58:43;;;;;;;1.13;1.13;;;12.90;99.90;;;13.48;57.12;96110.22;5206443;28;20576;-59
2022/04/07 07:01:16;;;;;;;1.40;1.30;;;12.60;99.90;;;13.23;57.52;96108.03;5206696;28;20210;-59
2022/04/07 07:03:51;;;;;;;1.20;1.20;;;12.40;99.90;;;12.99;58.92;96117.00;5206681;28;20200;-57
2022/04/07 07:06:24;;;;;;;1.50;1.40;;;12.30;99.90;;;13.01;58.83;96096.50;5206410;28;20250;-57
2022/04/07 07:08:57;;;;;;;1.52;1.42;;;12.40;99.90;;;12.86;59.67;96109.91;5206335;28;20206;-57
2022/04/07 07:11:30;;;;;;;1.65;1.60;;;12.30;99.90;;;12.96;58.92;96105.78;5206490;28;20305;-57
2022/04/07 07:14:03;;;;;;;1.80;1.70;;;12.30;99.90;;;12.81;60.26;96103.81;5206266;28;20256;-56
2022/04/07 07:16:37;;;;;;;1.33;1.33;;;12.20;99.90;;;12.77;59.74;96109.72;5210376;28;20198;-58
2022/04/07 07:19:12;;;;;;;1.95;1.50;;;12.20;99.90;;;12.70;60.66;96112.97;5213249;28;20669;-55
2022/04/07 07:21:45;;;;;;;1.13;1.13;;;12.10;99.90;;;12.82;59.39;96113.25;5206305;28;20265;-56
2022/04/07 07:24:19;;;;;;;1.90;1.33;;;12.10;99.90;;;12.93;60.11;96104.03;5206184;28;20673;-57
2022/04/07 07:26:52;;;;;;;1.20;1.10;;;12.30;99.90;;;12.93;59.95;96091.22;5206116;28;20225;-56
2022/04/07 07:29:25;;;;;;;1.05;1.05;;;12.40;99.90;;;13.07;58.74;96082.06;5207126;28;20662;-57
2022/04/07 07:31:58;;;;;;;1.40;1.00;;;12.50;99.90;;;13.28;58.06;96091.06;5206230;28;20261;-55
2022/04/07 07:34:33;;;;;;;1.23;1.13;;;12.70;99.90;;;13.46;57.83;96085.38;5206447;28;20709;-54
2022/04/07 07:37:06;;;;;;;0.80;0.80;;;12.90;99.90;;;13.42;56.29;96069.06;5205605;28;20284;-53
2022/04/07 07:39:39;;;;;;;1.05;1.05;;;12.90;99.60;;;13.57;56.39;96073.59;5202623;28;20205;-57
2022/04/07 07:42:12;;;;;;;1.50;1.40;;;13.10;99.80;;;13.87;55.30;96062.91;5204387;28;20198;-58
2022/04/07 07:44:49;;;;;;;2.38;2.17;;;13.30;99.70;;;13.93;55.24;96072.41;5205772;28;20218;-54
2022/04/07 07:47:22;;;;;;;1.65;1.55;;;13.30;99.00;;;13.79;55.15;96064.50;5204439;28;20198;-54
2022/04/07 07:49:57;;;;;;;1.63;1.52;;;13.20;99.00;;;13.65;56.34;96051.47;5206043;28;20209;-56
2022/04/07 07:52:30;;;;;;;1.30;1.30;;;13.10;99.40;;;13.75;55.39;96055.03;5203713;28;20301;-57
2022/04/07 07:55:03;;;;;;;1.55;1.45;;;13.10;99.00;;;13.75;56.21;96055.03;5201832;28;20706;-57
2022/04/07 07:57:36;;;;;;;1.70;1.60;;;13.10;99.20;;;13.75;55.29;96053.31;5198233;28;20229;-57
2022/04/07 08:00:12;;;;;;;1.60;1.50;;;13.10;99.30;;;13.86;55.09;96056.06;5205431;28;20292;-56
2022/04/07 08:02:45;;;;;;;1.80;1.70;;;13.20;99.10;;;13.91;55.12;96056.16;5205293;28;20651;-56
2022/04/07 08:05:20;;;;;;;1.85;1.20;;;13.30;99.00;;;13.80;55.98;96050.84;5204434;28;20315;-57
2022/04/07 08:07:53;;;;;;;1.17;1.17;;;13.30;99.00;;;13.83;56.22;96050.03;5198724;28;20235;-58
2022/04/07 08:10:26;;;;;;;1.38;1.27;;;13.20;99.20;;;13.87;55.81;96047.50;5205240;28;20297;-57
2022/04/07 08:13:00;;;;;;;1.92;1.40;;;13.10;99.40;;;13.85;55.93;96044.06;5203988;28;20228;-56
2022/04/07 08:15:34;;;;;;;1.45;1.35;;;13.20;98.90;;;13.84;56.25;96044.03;5205245;28;20639;-56
2022/04/07 08:18:08;;;;;;;1.60;1.50;;;13.20;99.10;;;13.66;55.61;96042.06;5205307;28;20233;-57
2022/04/07 08:20:43;;;;;;;1.85;1.75;;;13.00;99.00;;;13.52;56.64;96037.56;5207761;28;20193;-57
2022/04/07 08:23:16;;;;;;;1.65;1.60;;;12.90;99.50;;;13.56;56.68;96035.91;5204294;28;20640;-57
2022/04/07 08:25:49;;;;;;;1.70;1.60;;;13.00;99.40;;;13.61;56.53;96046.25;5205775;28;20560;-57
2022/04/07 08:28:22;;;;;;;1.55;1.45;;;13.00;99.40;;;13.62;56.69;96035.13;5205679;28;20233;-57
2022/04/07 08:30:56;;;;;;;3.05;1.30;;;13.10;99.40;;;13.62;56.91;96025.75;5205158;28;20198;-55
2022/04/07 08:33:29;;;;;;;1.30;1.20;;;13.00;99.50;;;13.74;57.28;96013.09;5204038;28;20202;-58
2022/04/07 08:36:04;;;;;;;1.50;1.48;;;13.10;99.40;;;13.56;57.42;96015.38;5205253;28;20321;-58
2022/04/07 08:38:37;;;;;;;4.90;4.38;;;13.00;99.90;;;13.61;56.68;96012.88;5205285;28;20239;-56
2022/04/07 08:41:12;;;;;;;2.25;1.83;;;13.00;99.60;;;13.65;57.22;95999.22;5205445;28;20280;-57
2022/04/07 08:43:45;;;;;;;1.73;1.63;;;13.10;99.50;;;13.69;56.38;95996.75;5204018;28;20508;-58
2022/04/07 08:46:18;;;;;;;1.33;1.25;;;13.10;99.20;;;13.78;56.86;95992.59;5205267;28;20260;-57
2022/04/07 08:48:51;;;;;;;1.15;1.15;;;13.10;99.40;;;13.84;55.90;95996.09;5205332;28;20187;-57
2022/04/07 08:51:28;;;;;;;1.50;1.40;;;13.20;99.10;;;13.83;55.90;95994.38;5205586;28;20300;-57
2022/04/07 08:54:02;;;;;;;2.22;1.20;;;13.10;99.40;;;13.81;56.54;95993.50;5201516;28;20279;-56
2022/04/07 08:56:35;;;;;;;1.50;1.40;;;13.20;99.20;;;13.76;57.30;95992.56;5204907;28;20190;-55
2022/04/07 08:59:08;;;;;;;3.00;2.90;;;13.10;99.50;;;13.88;55.99;95994.47;5204846;28;20332;-56
2022/04/07 09:01:41;;;;;;;1.75;1.40;;;13.10;99.60;;;13.87;56.49;95980.72;5203564;28;20252;-57
2022/04/07 09:04:15;;;;;;;1.25;1.25;;;13.20;99.50;;;13.88;56.89;95976.47;5204200;28;20228;-55
2022/04/07 09:06:56;;;;;;;1.75;1.63;;;13.30;99.30;;;13.88;59.21;95981.63;5205286;28;20648;-58
2022/04/07 09:09:32;;;;;;;1.35;1.35;;;13.30;99.90;;;13.81;59.90;95972.94;5204867;28;20285;-56
2022/04/07 09:12:08;;;;;;;1.50;1.40;;;13.20;99.90;;;13.83;58.54;95970.41;5203297;28;20265;-59
2022/04/07 09:14:42;;;;;;;1.50;1.40;;;13.30;99.90;;;13.84;58.64;95969.56;5198137;28;20221;-58
2022/04/07 09:17:15;;;;;;;2.15;1.40;;;13.30;99.90;;;13.92;58.30;95968.81;5205135;28;20232;-57
2022/04/07 09:19:51;;;;;;;1.88;1.77;;;13.30;99.90;;;13.96;57.36;95944.03;5205043;28;20233;-54
2022/04/07 09:22:31;;;;;;;1.50;1.38;;;13.40;99.70;;;14.05;57.32;95938.16;5203286;28;20603;-58
2022/04/07 09:25:06;;;;;;;1.40;1.40;;;13.50;99.70;;;13.98;56.87;95927.81;5203237;28;20221;-57
2022/04/07 09:27:41;;;;;;;1.67;1.58;;;13.40;99.60;;;13.97;56.47;95941.50;5196850;28;20198;-54
2022/04/07 09:30:14;;;;;;;1.42;1.33;;;13.30;99.70;;;13.88;57.08;95946.53;5204899;28;20657;-54
2022/04/07 09:32:48;;;;;;;2.85;1.70;;;13.30;99.60;;;13.87;57.95;95928.50;5203687;28;20272;-56
2022/04/07 09:35:21;;;;;;;1.90;1.80;;;13.20;99.90;;;13.73;56.77;95931.78;5203480;28;20221;-54
2022/04/07 09:38:03;;;;;;;1.77;1.50;;;13.10;99.80;;;13.67;58.22;95930.81;5204377;28;20233;-56
2022/04/07 09:40:36;;;;;;;1.83;1.33;;;13.10;99.80;;;13.72;57.33;95918.91;5204691;28;20623;-59
2022/04/07 09:43:09;;;;;;;1.40;1.30;;;13.10;99.90;;;13.68;58.47;95923.16;5204171;28;20198;-54
2022/04/07 09:45:45;;;;;;;1.85;1.70;;;13.10;99.90;;;13.71;58.58;95914.63;5203824;28;20658;-56
2022/04/07 09:48:38;;;;;;;1.33;1.25;;;13.10;99.90;;;13.69;59.98;95914.59;5196582;28;20205;-55
2022/04/07 09:51:12;;;;;;;1.52;1.38;;;13.10;99.90;;;13.61;62.56;95925.59;5204429;28;20297;-55
2022/04/07 09:53:47;;;;;;;1.30;1.30;;;13.00;99.90;;;13.45;63.39;95920.25;5203204;28;20237;-57
2022/04/07 09:56:28;;;;;;;1.50;1.42;;;12.90;99.90;;;13.26;64.01;95919.13;5208050;28;20621;-57
2022/04/07 09:59:05;;;;;;;1.20;1.20;;;12.70;99.90;;;13.12;65.99;95920.56;5204864;28;20194;-57
2022/04/07 10:01:39;;;;;;;2.13;1.40;;;12.60;99.90;;;13.07;65.11;95917.91;5196873;28;20254;-53
2022/04/07 10:04:12;;;;;;;1.52;1.42;;;12.60;99.90;;;13.13;65.01;95900.91;5200671;28;20535;-54
2022/04/07 10:06:46;;;;;;;1.48;1.15;;;12.60;99.90;;;13.20;65.74;95900.19;5198006;28;20292;-54
2022/04/07 10:09:23;;;;;;;1.25;1.23;;;12.60;99.90;;;13.03;66.53;95900.78;5200355;28;20684;-55
2022/04/07 10:11:57;;;;;;;1.92;1.83;;;12.50;99.90;;;13.10;65.48;95911.13;5205415;28;20587;-57
2022/04/07 10:14:34;;;;;;;2.03;1.83;;;12.50;99.90;;;13.09;63.38;95889.75;5199230;28;20659;-51
2022/04/07 10:17:11;;;;;;;1.63;1.27;;;12.60;99.90;;;13.22;64.09;95883.97;5204107;28;20225;-57
2022/04/07 10:19:50;;;;;;;1.40;1.30;;;12.60;99.90;;;13.37;64.30;95875.66;5202811;28;20233;-52
2022/04/07 10:22:48;;;;;;;1.42;1.30;;;12.70;99.90;;;13.49;64.64;95880.94;5205154;28;20194;-53
2022/04/07 10:25:24;;;;;;;1.50;1.40;;;12.90;99.90;;;13.45;62.92;95871.50;5206458;28;20568;-58
2022/04/07 10:28:04;;;;;;;1.50;1.40;;;12.90;99.90;;;13.61;61.85;95853.72;5207556;28;20197;-58
2022/04/07 10:30:48;;;;;;;1.30;1.20;;;13.10;99.90;;;13.65;62.18;95840.06;5199854;28;20490;-52
2022/04/07 10:33:41;;;;;;;1.30;1.20;;;13.10;99.90;;;13.73;61.09;95853.88;5201082;28;20229;-54
2022/04/07 10:36:21;;;;;;;1.38;1.38;;;13.20;99.90;;;13.88;60.11;95836.09;5207159;28;20218;-53
2022/04/07 10:38:56;;;;;;;1.40;1.30;;;13.30;99.90;;;13.93;60.92;95826.69;5198547;28;20221;-54
2022/04/07 10:41:49;;;;;;;1.80;1.38;;;13.50;99.90;;;14.05;60.12;95820.88;5204255;28;20236;-51
2022/04/07 10:44:24;;;;;;;1.33;1.23;;;13.60;99.90;;;14.15;60.12;95817.53;5203131;28;20232;-51
2022/04/07 10:47:02;;;;;;;3.53;1.30;;;13.60;99.90;;;14.19;59.07;95806.44;5209263;28;20231;-53
2022/04/07 10:49:36;;;;;;;1.40;1.40;;;13.90;99.90;;;14.43;58.02;95799.81;5206754;28;20281;-51